createdAt,value
2023-01-17T00:03:00.507Z,13.55
2023-01-17T00:08:23.754Z,13.84
2023-01-17T00:13:29.419Z,13.95
2023-01-17T00:18:39.610Z,13.95
2023-01-17T00:23:56.872Z,14.73
2023-01-17T00:28:59.130Z,15.61
2023-01-17T00:34:05.006Z,16.74
2023-01-17T00:39:09.753Z,17.98
2023-01-17T00:44:30.686Z,18.75
2023-01-17T00:49:52.687Z,19.34
2023-01-17T00:55:13.371Z,19.14
2023-01-17T01:00:34.676Z,19.32
2023-01-17T01:05:57.239Z,19.39
2023-01-17T01:11:18.120Z,20.28
2023-01-17T01:16:39.141Z,21.20
2023-01-17T01:22:01.219Z,21.69
2023-01-17T01:27:22.230Z,21.80
2023-01-17T01:32:45.060Z,22.04
2023-01-17T01:37:49.937Z,21.95
2023-01-17T01:42:54.547Z,21.36
2023-01-17T01:48:01.063Z,22.30
2023-01-17T01:53:08.216Z,20.55
2023-01-17T01:58:16.219Z,20.72
2023-01-17T02:03:23.482Z,20.07
2023-01-17T02:08:28.241Z,19.91
2023-01-17T02:13:34.719Z,19.47
2023-01-17T02:18:50.754Z,19.23
2023-01-17T02:24:16.953Z,20.33
2023-01-17T02:29:48.774Z,19.12
2023-01-17T02:34:59.743Z,19.26
2023-01-17T02:40:09.017Z,18.88
2023-01-17T02:45:16.190Z,18.39
2023-01-17T02:50:23.851Z,19.57
2023-01-17T02:55:38.337Z,19.97
2023-01-17T03:00:52.003Z,19.34
2023-01-17T03:06:01.943Z,18.94
2023-01-17T03:11:08.337Z,19.53
2023-01-17T03:16:18.668Z,19.15
2023-01-17T03:21:25.553Z,18.02
2023-01-17T03:26:28.977Z,19.00
2023-01-17T03:31:32.347Z,25.16
2023-01-17T03:36:39.482Z,17.97
2023-01-17T03:41:42.880Z,20.06
2023-01-17T03:46:46.350Z,27.60
2023-01-17T03:51:51.106Z,16.98
2023-01-17T03:56:54.465Z,16.95
2023-01-17T04:02:00.097Z,18.66
2023-01-17T04:07:07.359Z,26.06
2023-01-17T04:12:15.866Z,21.04
2023-01-17T04:17:20.888Z,15.82
2023-01-17T04:22:25.711Z,19.77
2023-01-17T04:27:29.081Z,18.35
2023-01-17T04:32:32.431Z,17.36
2023-01-17T04:37:37.241Z,16.43
2023-01-17T04:42:40.593Z,15.28
2023-01-17T04:47:44.204Z,15.06
2023-01-17T04:52:48.999Z,16.23
2023-01-17T04:57:57.439Z,14.72
2023-01-17T05:03:03.598Z,15.20
2023-01-17T05:08:09.641Z,17.66
2023-01-17T05:13:14.309Z,23.08
2023-01-17T05:18:19.369Z,26.54
2023-01-17T05:23:25.444Z,18.86
2023-01-17T05:28:28.935Z,18.16
2023-01-17T05:33:32.317Z,17.65
2023-01-17T05:38:37.268Z,18.53
2023-01-17T05:43:40.657Z,18.94
2023-01-17T05:48:44.426Z,23.22
2023-01-17T05:53:49.248Z,21.33
2023-01-17T05:58:54.905Z,19.80
2023-01-17T06:03:58.345Z,18.97
2023-01-17T06:09:05.505Z,19.82
2023-01-17T06:14:11.448Z,21.03
2023-01-17T06:19:14.877Z,20.71
2023-01-17T06:24:22.201Z,19.60
2023-01-17T06:29:25.972Z,20.33
2023-01-17T06:34:29.455Z,20.19
2023-01-17T06:39:36.849Z,21.52
2023-01-17T06:44:42.549Z,20.60
2023-01-17T06:49:45.907Z,20.20
2023-01-17T06:54:54.295Z,29.33
2023-01-17T07:00:02.591Z,24.76
2023-01-17T07:05:06.287Z,23.39
2023-01-17T07:10:11.737Z,20.65
2023-01-17T07:15:21.606Z,25.54
2023-01-17T07:20:27.590Z,21.60
2023-01-17T07:25:32.409Z,21.65
2023-01-17T07:30:36.738Z,20.81
2023-01-17T07:35:41.391Z,20.51
2023-01-17T07:40:48.644Z,22.00
2023-01-17T07:45:52.130Z,20.00
2023-01-17T07:50:58.778Z,23.64
2023-01-17T07:56:04.408Z,26.71
2023-01-17T08:01:13.138Z,20.90
2023-01-17T08:06:18.430Z,20.05
2023-01-17T08:11:25.413Z,20.66
2023-01-17T08:16:29.865Z,21.13
2023-01-17T08:21:36.029Z,20.43
2023-01-17T08:26:42.924Z,19.63
2023-01-17T08:31:46.329Z,19.27
2023-01-17T08:36:53.933Z,19.70
2023-01-17T08:41:58.839Z,17.87
2023-01-17T08:47:02.407Z,21.62
2023-01-17T08:52:08.191Z,17.38
2023-01-17T08:57:12.950Z,17.21
2023-01-17T09:02:21.389Z,18.48
2023-01-17T09:07:27.594Z,18.34
2023-01-17T09:12:36.843Z,17.22
2023-01-17T09:17:44.673Z,17.36
2023-01-17T09:22:50.588Z,19.41
2023-01-17T09:27:55.310Z,18.96
2023-01-17T09:33:03.339Z,22.31
2023-01-17T09:38:07.017Z,18.96
2023-01-17T09:43:23.243Z,13.51
2023-01-17T09:48:34.217Z,12.81
2023-01-17T09:53:43.991Z,14.68
2023-01-17T09:58:58.187Z,13.90
2023-01-17T10:04:11.140Z,14.99
2023-01-17T10:09:35.142Z,17.03
2023-01-17T10:15:03.058Z,18.63
2023-01-17T10:20:21.373Z,17.67
2023-01-17T10:25:33.897Z,18.43
2023-01-17T10:30:40.325Z,17.24
2023-01-17T10:35:54.707Z,23.46
2023-01-17T10:41:01.910Z,22.44
2023-01-17T10:46:16.308Z,17.84
2023-01-17T10:51:34.031Z,18.02
2023-01-17T10:56:40.788Z,18.13
2023-01-17T11:01:47.702Z,18.09
2023-01-17T11:07:11.258Z,18.50
2023-01-17T11:12:20.232Z,18.24
2023-01-17T11:17:23.860Z,18.58
2023-01-17T11:22:34.007Z,18.48
2023-01-17T11:27:39.551Z,19.08
2023-01-17T11:32:52.742Z,20.22
2023-01-17T11:38:04.489Z,20.25
2023-01-17T11:43:21.995Z,20.59
2023-01-17T11:48:25.408Z,20.55
2023-01-17T11:53:33.092Z,20.20
2023-01-17T11:58:42.416Z,19.64
2023-01-17T12:04:04.600Z,19.38
2023-01-17T12:09:23.050Z,19.53
2023-01-17T12:14:36.374Z,23.52
2023-01-17T12:19:54.395Z,20.35
2023-01-17T12:25:08.537Z,18.58
2023-01-17T12:30:22.743Z,17.66
2023-01-17T12:35:31.649Z,18.30
2023-01-17T12:40:44.406Z,20.17
2023-01-17T12:45:54.723Z,22.15
2023-01-17T12:51:06.829Z,21.39
2023-01-17T12:56:17.528Z,24.84
2023-01-17T13:01:25.137Z,22.10
2023-01-17T13:06:33.770Z,19.63
2023-01-17T13:11:46.044Z,18.97
2023-01-17T13:16:57.962Z,20.39
2023-01-17T13:22:07.381Z,19.02
2023-01-17T13:27:29.487Z,19.62
2023-01-17T13:32:49.962Z,24.93
2023-01-17T13:38:13.041Z,19.45
2023-01-17T13:43:20.998Z,21.19
2023-01-17T13:48:32.901Z,21.98
2023-01-17T13:53:59.960Z,20.44
2023-01-17T13:59:20.737Z,19.28
2023-01-17T14:04:43.589Z,21.05
2023-01-17T14:09:51.473Z,20.66
2023-01-17T14:14:57.004Z,28.90
2023-01-17T14:20:21.450Z,21.91
2023-01-17T14:25:29.909Z,20.53
2023-01-17T14:30:37.544Z,21.45
2023-01-17T14:35:42.345Z,21.24
2023-01-17T14:40:54.056Z,20.63
2023-01-17T14:46:03.302Z,20.90
2023-01-17T14:51:13.533Z,21.36
2023-01-17T14:56:20.825Z,21.29
2023-01-17T15:01:24.647Z,20.63
2023-01-17T15:06:36.684Z,34.99
2023-01-17T15:11:46.027Z,23.06
2023-01-17T15:16:52.003Z,23.22
2023-01-17T15:21:55.908Z,21.59
2023-01-17T15:27:03.473Z,22.68
2023-01-17T15:32:09.267Z,22.58
2023-01-17T15:37:24.130Z,24.81
2023-01-17T15:42:32.273Z,25.75
2023-01-17T15:47:39.178Z,27.06
2023-01-17T15:52:49.223Z,27.24
2023-01-17T15:57:54.056Z,27.01
2023-01-17T16:02:59.025Z,28.12
2023-01-17T16:08:25.404Z,42.66
2023-01-17T16:13:34.771Z,29.66
2023-01-17T16:18:38.614Z,29.07
2023-01-17T16:23:42.930Z,28.78
2023-01-17T16:28:47.945Z,28.18
2023-01-17T16:33:51.842Z,33.71
2023-01-17T16:38:55.307Z,29.64
2023-01-17T16:44:01.716Z,29.71
2023-01-17T16:49:07.215Z,35.53
2023-01-17T16:54:12.777Z,30.71
2023-01-17T16:59:17.594Z,29.48
2023-01-17T17:04:21.158Z,30.71
2023-01-17T17:09:26.989Z,32.49
2023-01-17T17:14:33.932Z,34.35
2023-01-17T17:19:37.431Z,37.53
2023-01-17T17:24:40.874Z,35.37
2023-01-17T17:29:50.598Z,36.48
2023-01-17T17:34:54.076Z,36.36
2023-01-17T17:40:03.616Z,41.77
2023-01-17T17:45:11.141Z,36.81
2023-01-17T17:50:14.611Z,35.86
2023-01-17T17:55:19.083Z,36.13
2023-01-17T18:00:24.121Z,36.70
2023-01-17T18:05:27.571Z,38.56
2023-01-17T18:10:31.005Z,40.33
2023-01-17T18:15:35.815Z,42.41
2023-01-17T18:20:39.915Z,50.42
2023-01-17T18:25:48.579Z,50.14
2023-01-17T18:30:53.427Z,53.33
2023-01-17T18:36:00.286Z,58.87
2023-01-17T18:41:06.856Z,57.31
2023-01-17T18:46:17.494Z,60.05
2023-01-17T18:51:21.896Z,62.17
2023-01-17T18:56:25.308Z,63.20
2023-01-17T19:01:33.630Z,61.80
2023-01-17T19:06:41.978Z,61.55
2023-01-17T19:11:47.644Z,67.47
2023-01-17T19:16:52.480Z,65.16
2023-01-17T19:21:55.909Z,65.52
2023-01-17T19:27:02.747Z,65.37
2023-01-17T19:32:09.792Z,66.83
2023-01-17T19:37:15.757Z,69.00
2023-01-17T19:42:20.376Z,74.89
2023-01-17T19:47:31.740Z,70.88
2023-01-17T19:52:35.643Z,76.36
2023-01-17T19:57:40.646Z,70.13
2023-01-17T20:02:45.532Z,69.45
2023-01-17T20:07:52.529Z,69.39
2023-01-17T20:12:55.984Z,67.33
2023-01-17T20:18:04.515Z,67.41
2023-01-17T20:23:07.947Z,65.05
2023-01-17T20:28:11.404Z,62.47
2023-01-17T20:33:16.168Z,63.00
2023-01-17T20:38:19.542Z,62.49
2023-01-17T20:43:22.984Z,62.18
2023-01-17T20:48:30.869Z,59.79
2023-01-17T20:53:34.780Z,61.41
2023-01-17T20:58:39.436Z,64.26
2023-01-17T21:03:48.002Z,63.16
2023-01-17T21:08:53.359Z,68.90
2023-01-17T21:13:58.931Z,74.05
2023-01-17T21:19:04.400Z,75.87
2023-01-17T21:24:08.031Z,73.11
2023-01-17T21:29:12.300Z,72.30
2023-01-17T21:34:17.081Z,69.88
2023-01-17T21:39:37.388Z,66.97
2023-01-17T21:44:43.685Z,69.45
2023-01-17T21:49:48.517Z,67.11
2023-01-17T21:55:09.642Z,64.15
2023-01-17T22:00:15.474Z,63.97
2023-01-17T22:05:20.679Z,68.94
2023-01-17T22:10:24.126Z,76.52
2023-01-17T22:15:29.827Z,89.28
2023-01-17T22:20:35.159Z,87.14
2023-01-17T22:25:38.542Z,76.32
2023-01-17T22:30:42.152Z,71.64
2023-01-17T22:35:49.149Z,71.22
2023-01-17T22:40:55.341Z,65.89
2023-01-17T22:45:59.772Z,64.85
2023-01-17T22:51:08.726Z,66.92
2023-01-17T22:56:13.604Z,80.78
2023-01-17T23:01:20.817Z,82.86
2023-01-17T23:06:27.371Z,75.91
2023-01-17T23:11:42.659Z,75.53
2023-01-17T23:17:08.490Z,76.95
2023-01-17T23:22:19.096Z,77.14
2023-01-17T23:27:41.399Z,74.94
2023-01-17T23:32:46.834Z,72.65
2023-01-17T23:38:09.156Z,88.11
2023-01-17T23:43:28.695Z,73.02
2023-01-17T23:48:32.615Z,66.55
2023-01-17T23:53:41.002Z,60.69
2023-01-17T23:58:47.384Z,59.14
